sensor_id;sensor_type;location;lat;lon;timestamp;pressure;altitude;pressure_sealevel;temperature;humidity
57250;BME280;43102;52.014;-0.680;2023-04-28T00:00:00;99915;;;11.66;79.54
57250;BME280;43102;52.014;-0.680;2023-04-28T00:01:00;99915;;;11.66;79.54
57250;BME280;43102;52.014;-0.680;2023-04-28T00:02:00;99915;;;11.66;79.54
57250;BME280;43102;52.014;-0.680;2023-04-28T00:03:00;99903;;;11.70;79.76
57250;BME280;43102;52.014;-0.680;2023-04-28T00:04:00;99903;;;11.70;79.76
57250;BME280;43102;52.014;-0.680;2023-04-28T00:05:00;99903;;;11.70;79.76
57250;BME280;43102;52.014;-0.680;2023-04-28T00:06:00;99903;;;11.70;79.76
57250;BME280;43102;52.014;-0.680;2023-04-28T00:07:00;99903;;;11.70;79.76
57250;BME280;43102;52.014;-0.680;2023-04-28T00:08:00;99903;;;11.70;79.35
57250;BME280;43102;52.014;-0.680;2023-04-28T00:09:00;99903;;;11.70;79.35
57250;BME280;43102;52.014;-0.680;2023-04-28T00:10:00;99903;;;11.70;79.35
57250;BME280;43102;52.014;-0.680;2023-04-28T00:11:00;99903;;;11.70;79.35
57250;BME280;43102;52.014;-0.680;2023-04-28T00:12:00;99903;;;11.70;79.35
57250;BME280;43102;52.014;-0.680;2023-04-28T00:13:00;99901;;;11.73;79.58
57250;BME280;43102;52.014;-0.680;2023-04-28T00:14:00;99901;;;11.73;79.58
57250;BME280;43102;52.014;-0.680;2023-04-28T00:15:00;99901;;;11.73;79.58
57250;BME280;43102;52.014;-0.680;2023-04-28T00:16:00;99901;;;11.73;79.58
57250;BME280;43102;52.014;-0.680;2023-04-28T00:17:00;99901;;;11.73;79.58
57250;BME280;43102;52.014;-0.680;2023-04-28T00:18:00;99901;;;11.75;79.77
57250;BME280;43102;52.014;-0.680;2023-04-28T00:19:00;99901;;;11.75;79.77
57250;BME280;43102;52.014;-0.680;2023-04-28T00:20:00;99901;;;11.75;79.77
57250;BME280;43102;52.014;-0.680;2023-04-28T00:21:00;99901;;;11.75;79.77
57250;BME280;43102;52.014;-0.680;2023-04-28T00:22:00;99901;;;11.75;79.77
57250;BME280;43102;52.014;-0.680;2023-04-28T00:23:00;99896;;;11.78;80.04
57250;BME280;43102;52.014;-0.680;2023-04-28T00:24:00;99896;;;11.78;80.04
57250;BME280;43102;52.014;-0.680;2023-04-28T00:25:00;99896;;;11.78;80.04
57250;BME280;43102;52.014;-0.680;2023-04-28T00:26:00;99896;;;11.78;80.04
57250;BME280;43102;52.014;-0.680;2023-04-28T00:27:00;99896;;;11.78;80.04
57250;BME280;43102;52.014;-0.680;2023-04-28T00:28:00;99882;;;11.78;80.34
57250;BME280;43102;52.014;-0.680;2023-04-28T00:29:00;99882;;;11.78;80.34
57250;BME280;43102;52.014;-0.680;2023-04-28T00:30:00;99882;;;11.78;80.34
57250;BME280;43102;52.014;-0.680;2023-04-28T00:31:00;99882;;;11.78;80.34
57250;BME280;43102;52.014;-0.680;2023-04-28T00:32:00;99882;;;11.78;80.34
57250;BME280;43102;52.014;-0.680;2023-04-28T00:33:00;99872;;;11.81;80.34
57250;BME280;43102;52.014;-0.680;2023-04-28T00:34:00;99872;;;11.81;80.34
57250;BME280;43102;52.014;-0.680;2023-04-28T00:35:00;99872;;;11.81;80.34
57250;BME280;43102;52.014;-0.680;2023-04-28T00:36:00;99872;;;11.81;80.34
57250;BME280;43102;52.014;-0.680;2023-04-28T00:37:00;99872;;;11.81;80.34
57250;BME280;43102;52.014;-0.680;2023-04-28T00:38:00;99873;;;11.84;80.41
57250;BME280;43102;52.014;-0.680;2023-04-28T00:39:00;99873;;;11.84;80.41
57250;BME280;43102;52.014;-0.680;2023-04-28T00:40:00;99873;;;11.84;80.41
57250;BME280;43102;52.014;-0.680;2023-04-28T00:41:00;99873;;;11.84;80.41
57250;BME280;43102;52.014;-0.680;2023-04-28T00:42:00;99873;;;11.84;80.41
57250;BME280;43102;52.014;-0.680;2023-04-28T00:43:00;99878;;;11.85;80.57
57250;BME280;43102;52.014;-0.680;2023-04-28T00:44:00;99878;;;11.85;80.57
57250;BME280;43102;52.014;-0.680;2023-04-28T00:45:00;99878;;;11.85;80.57
57250;BME280;43102;52.014;-0.680;2023-04-28T00:46:00;99878;;;11.85;80.57
57250;BME280;43102;52.014;-0.680;2023-04-28T00:47:00;99878;;;11.85;80.57
57250;BME280;43102;52.014;-0.680;2023-04-28T00:48:00;99866;;;11.87;80.42
57250;BME280;43102;52.014;-0.680;2023-04-28T00:49:00;99866;;;11.87;80.42
57250;BME280;43102;52.014;-0.680;2023-04-28T00:50:00;99866;;;11.87;80.42
57250;BME280;43102;52.014;-0.680;2023-04-28T00:51:00;99866;;;11.87;80.42
57250;BME280;43102;52.014;-0.680;2023-04-28T00:52:01;99866;;;11.87;80.42
57250;BME280;43102;52.014;-0.680;2023-04-28T00:53:00;99861;;;11.89;80.23
57250;BME280;43102;52.014;-0.680;2023-04-28T00:54:00;99861;;;11.89;80.23
57250;BME280;43102;52.014;-0.680;2023-04-28T00:55:00;99861;;;11.89;80.23
57250;BME280;43102;52.014;-0.680;2023-04-28T00:56:00;99861;;;11.89;80.23
57250;BME280;43102;52.014;-0.680;2023-04-28T00:57:00;99861;;;11.89;80.23
57250;BME280;43102;52.014;-0.680;2023-04-28T00:58:00;99854;;;11.91;80.55
57250;BME280;43102;52.014;-0.680;2023-04-28T00:59:00;99854;;;11.91;80.55
57250;BME280;43102;52.014;-0.680;2023-04-28T01:00:00;99854;;;11.91;80.55
57250;BME280;43102;52.014;-0.680;2023-04-28T01:01:01;99854;;;11.91;80.55
57250;BME280;43102;52.014;-0.680;2023-04-28T01:02:00;99854;;;11.91;80.55
57250;BME280;43102;52.014;-0.680;2023-04-28T01:03:00;99848;;;11.94;80.53
57250;BME280;43102;52.014;-0.680;2023-04-28T01:04:01;99848;;;11.94;80.53
57250;BME280;43102;52.014;-0.680;2023-04-28T01:05:00;99848;;;11.94;80.53
57250;BME280;43102;52.014;-0.680;2023-04-28T01:06:00;99848;;;11.94;80.53
57250;BME280;43102;52.014;-0.680;2023-04-28T01:07:00;99848;;;11.94;80.53
57250;BME280;43102;52.014;-0.680;2023-04-28T01:08:00;99848;;;11.95;80.47
57250;BME280;43102;52.014;-0.680;2023-04-28T01:09:00;99848;;;11.95;80.47
57250;BME280;43102;52.014;-0.680;2023-04-28T01:10:00;99848;;;11.95;80.47
57250;BME280;43102;52.014;-0.680;2023-04-28T01:11:00;99848;;;11.95;80.47
57250;BME280;43102;52.014;-0.680;2023-04-28T01:12:00;99848;;;11.95;80.47
57250;BME280;43102;52.014;-0.680;2023-04-28T01:13:00;99843;;;11.97;80.51
57250;BME280;43102;52.014;-0.680;2023-04-28T01:14:00;99843;;;11.97;80.51
57250;BME280;43102;52.014;-0.680;2023-04-28T01:15:00;99843;;;11.97;80.51
57250;BME280;43102;52.014;-0.680;2023-04-28T01:16:00;99843;;;11.97;80.51
57250;BME280;43102;52.014;-0.680;2023-04-28T01:17:00;99843;;;11.97;80.51
57250;BME280;43102;52.014;-0.680;2023-04-28T01:18:00;99838;;;12.01;80.53
57250;BME280;43102;52.014;-0.680;2023-04-28T01:19:00;99838;;;12.01;80.53
57250;BME280;43102;52.014;-0.680;2023-04-28T01:20:00;99838;;;12.01;80.53
57250;BME280;43102;52.014;-0.680;2023-04-28T01:21:00;99838;;;12.01;80.53
57250;BME280;43102;52.014;-0.680;2023-04-28T01:22:00;99838;;;12.01;80.53
57250;BME280;43102;52.014;-0.680;2023-04-28T01:23:00;99841;;;12.04;80.59
57250;BME280;43102;52.014;-0.680;2023-04-28T01:24:00;99841;;;12.04;80.59
57250;BME280;43102;52.014;-0.680;2023-04-28T01:25:00;99841;;;12.04;80.59
57250;BME280;43102;52.014;-0.680;2023-04-28T01:26:00;99841;;;12.04;80.59
57250;BME280;43102;52.014;-0.680;2023-04-28T01:27:00;99841;;;12.04;80.59
57250;BME280;43102;52.014;-0.680;2023-04-28T01:28:00;99841;;;12.06;80.98
57250;BME280;43102;52.014;-0.680;2023-04-28T01:29:00;99841;;;12.06;80.98
57250;BME280;43102;52.014;-0.680;2023-04-28T01:30:00;99841;;;12.06;80.98
57250;BME280;43102;52.014;-0.680;2023-04-28T01:31:00;99841;;;12.06;80.98
57250;BME280;43102;52.014;-0.680;2023-04-28T01:32:00;99841;;;12.06;80.98
57250;BME280;43102;52.014;-0.680;2023-04-28T01:33:00;99836;;;12.06;81.21
57250;BME280;43102;52.014;-0.680;2023-04-28T01:34:00;99836;;;12.06;81.21
57250;BME280;43102;52.014;-0.680;2023-04-28T01:35:00;99836;;;12.06;81.21
57250;BME280;43102;52.014;-0.680;2023-04-28T01:36:00;99836;;;12.06;81.21
57250;BME280;43102;52.014;-0.680;2023-04-28T01:37:00;99836;;;12.06;81.21
57250;BME280;43102;52.014;-0.680;2023-04-28T01:38:00;99840;;;12.09;81.07
57250;BME280;43102;52.014;-0.680;2023-04-28T01:39:00;99840;;;12.09;81.07
57250;BME280;43102;52.014;-0.680;2023-04-28T01:40:00;99840;;;12.09;81.07
57250;BME280;43102;52.014;-0.680;2023-04-28T01:41:00;99840;;;12.09;81.07
57250;BME280;43102;52.014;-0.680;2023-04-28T01:42:00;99840;;;12.09;81.07
57250;BME280;43102;52.014;-0.680;2023-04-28T01:43:00;99840;;;12.08;81.15
57250;BME280;43102;52.014;-0.680;2023-04-28T01:44:00;99840;;;12.08;81.15
57250;BME280;43102;52.014;-0.680;2023-04-28T01:45:00;99840;;;12.08;81.15
57250;BME280;43102;52.014;-0.680;2023-04-28T01:46:00;99840;;;12.08;81.15
57250;BME280;43102;52.014;-0.680;2023-04-28T01:47:00;99840;;;12.08;81.15
57250;BME280;43102;52.014;-0.680;2023-04-28T01:48:00;99841;;;12.13;80.74
57250;BME280;43102;52.014;-0.680;2023-04-28T01:49:00;99841;;;12.13;80.74
57250;BME280;43102;52.014;-0.680;2023-04-28T01:50:00;99841;;;12.13;80.74
57250;BME280;43102;52.014;-0.680;2023-04-28T01:51:00;99841;;;12.13;80.74
57250;BME280;43102;52.014;-0.680;2023-04-28T01:52:00;99841;;;12.13;80.74
57250;BME280;43102;52.014;-0.680;2023-04-28T01:53:00;99838;;;12.17;80.66
57250;BME280;43102;52.014;-0.680;2023-04-28T01:54:00;99838;;;12.17;80.66
57250;BME280;43102;52.014;-0.680;2023-04-28T01:55:00;99838;;;12.17;80.66
57250;BME280;43102;52.014;-0.680;2023-04-28T01:56:00;99838;;;12.17;80.66
57250;BME280;43102;52.014;-0.680;2023-04-28T01:57:00;99838;;;12.17;80.66
57250;BME280;43102;52.014;-0.680;2023-04-28T01:58:00;99836;;;12.23;80.83
57250;BME280;43102;52.014;-0.680;2023-04-28T01:59:00;99836;;;12.23;80.83
57250;BME280;43102;52.014;-0.680;2023-04-28T02:00:00;99836;;;12.23;80.83
57250;BME280;43102;52.014;-0.680;2023-04-28T02:01:00;99836;;;12.23;80.83
57250;BME280;43102;52.014;-0.680;2023-04-28T02:02:00;99836;;;12.23;80.83
57250;BME280;43102;52.014;-0.680;2023-04-28T02:03:00;99841;;;12.28;81.06
57250;BME280;43102;52.014;-0.680;2023-04-28T02:04:00;99841;;;12.28;81.06
57250;BME280;43102;52.014;-0.680;2023-04-28T02:05:00;99841;;;12.28;81.06
57250;BME280;43102;52.014;-0.680;2023-04-28T02:06:00;99841;;;12.28;81.06
57250;BME280;43102;52.014;-0.680;2023-04-28T02:07:00;99841;;;12.28;81.06
57250;BME280;43102;52.014;-0.680;2023-04-28T02:08:00;99844;;;12.30;80.57
57250;BME280;43102;52.014;-0.680;2023-04-28T02:09:00;99844;;;12.30;80.57
57250;BME280;43102;52.014;-0.680;2023-04-28T02:10:00;99844;;;12.30;80.57
57250;BME280;43102;52.014;-0.680;2023-04-28T02:11:00;99844;;;12.30;80.57
57250;BME280;43102;52.014;-0.680;2023-04-28T02:12:00;99844;;;12.30;80.57
57250;BME280;43102;52.014;-0.680;2023-04-28T02:13:00;99839;;;12.33;80.51
57250;BME280;43102;52.014;-0.680;2023-04-28T02:14:00;99839;;;12.33;80.51
57250;BME280;43102;52.014;-0.680;2023-04-28T02:15:00;99839;;;12.33;80.51
57250;BME280;43102;52.014;-0.680;2023-04-28T02:16:00;99839;;;12.33;80.51
57250;BME280;43102;52.014;-0.680;2023-04-28T02:17:00;99839;;;12.33;80.51
57250;BME280;43102;52.014;-0.680;2023-04-28T02:18:00;99839;;;12.34;80.65
57250;BME280;43102;52.014;-0.680;2023-04-28T02:19:00;99839;;;12.34;80.65
57250;BME280;43102;52.014;-0.680;2023-04-28T02:20:00;99839;;;12.34;80.65
57250;BME280;43102;52.014;-0.680;2023-04-28T02:21:07;99839;;;12.34;80.65
57250;BME280;43102;52.014;-0.680;2023-04-28T02:22:00;99839;;;12.34;80.65
57250;BME280;43102;52.014;-0.680;2023-04-28T02:23:00;99838;;;12.37;80.63
57250;BME280;43102;52.014;-0.680;2023-04-28T02:24:00;99838;;;12.37;80.63
57250;BME280;43102;52.014;-0.680;2023-04-28T02:25:00;99838;;;12.37;80.63
57250;BME280;43102;52.014;-0.680;2023-04-28T02:26:00;99838;;;12.37;80.63
57250;BME280;43102;52.014;-0.680;2023-04-28T02:27:00;99838;;;12.37;80.63
57250;BME280;43102;52.014;-0.680;2023-04-28T02:28:00;99835;;;12.41;81.00
57250;BME280;43102;52.014;-0.680;2023-04-28T02:29:00;99835;;;12.41;81.00
57250;BME280;43102;52.014;-0.680;2023-04-28T02:30:00;99835;;;12.41;81.00
57250;BME280;43102;52.014;-0.680;2023-04-28T02:31:08;99835;;;12.41;81.00
57250;BME280;43102;52.014;-0.680;2023-04-28T02:32:00;99835;;;12.41;81.00
57250;BME280;43102;52.014;-0.680;2023-04-28T02:33:00;99835;;;12.46;80.71
57250;BME280;43102;52.014;-0.680;2023-04-28T02:34:00;99835;;;12.46;80.71
57250;BME280;43102;52.014;-0.680;2023-04-28T02:35:00;99835;;;12.46;80.71
57250;BME280;43102;52.014;-0.680;2023-04-28T02:36:00;99835;;;12.46;80.71
57250;BME280;43102;52.014;-0.680;2023-04-28T02:37:00;99835;;;12.46;80.71
57250;BME280;43102;52.014;-0.680;2023-04-28T02:38:00;99839;;;12.51;80.40
57250;BME280;43102;52.014;-0.680;2023-04-28T02:39:00;99839;;;12.51;80.40
57250;BME280;43102;52.014;-0.680;2023-04-28T02:40:00;99839;;;12.51;80.40
57250;BME280;43102;52.014;-0.680;2023-04-28T02:41:00;99839;;;12.51;80.40
57250;BME280;43102;52.014;-0.680;2023-04-28T02:42:00;99839;;;12.51;80.40
57250;BME280;43102;52.014;-0.680;2023-04-28T02:43:00;99837;;;12.55;80.13
57250;BME280;43102;52.014;-0.680;2023-04-28T02:44:00;99837;;;12.55;80.13
57250;BME280;43102;52.014;-0.680;2023-04-28T02:45:00;99837;;;12.55;80.13
57250;BME280;43102;52.014;-0.680;2023-04-28T02:46:01;99837;;;12.55;80.13
57250;BME280;43102;52.014;-0.680;2023-04-28T02:47:00;99837;;;12.55;80.13
57250;BME280;43102;52.014;-0.680;2023-04-28T02:48:00;99833;;;12.60;79.96
57250;BME280;43102;52.014;-0.680;2023-04-28T02:49:00;99833;;;12.60;79.96
57250;BME280;43102;52.014;-0.680;2023-04-28T02:50:00;99833;;;12.60;79.96
57250;BME280;43102;52.014;-0.680;2023-04-28T02:51:01;99833;;;12.60;79.96
57250;BME280;43102;52.014;-0.680;2023-04-28T02:52:00;99833;;;12.60;79.96
57250;BME280;43102;52.014;-0.680;2023-04-28T02:53:00;99837;;;12.60;78.70
57250;BME280;43102;52.014;-0.680;2023-04-28T02:54:00;99837;;;12.60;78.70
57250;BME280;43102;52.014;-0.680;2023-04-28T02:55:00;99837;;;12.60;78.70
57250;BME280;43102;52.014;-0.680;2023-04-28T02:56:00;99837;;;12.60;78.70
57250;BME280;43102;52.014;-0.680;2023-04-28T02:57:00;99837;;;12.60;78.70
57250;BME280;43102;52.014;-0.680;2023-04-28T02:58:00;99836;;;12.66;79.92
57250;BME280;43102;52.014;-0.680;2023-04-28T02:59:00;99836;;;12.66;79.92
57250;BME280;43102;52.014;-0.680;2023-04-28T03:00:00;99836;;;12.66;79.92
57250;BME280;43102;52.014;-0.680;2023-04-28T03:01:00;99836;;;12.66;79.92
57250;BME280;43102;52.014;-0.680;2023-04-28T03:02:00;99836;;;12.66;79.92
57250;BME280;43102;52.014;-0.680;2023-04-28T03:03:00;99830;;;12.68;79.20
57250;BME280;43102;52.014;-0.680;2023-04-28T03:04:00;99830;;;12.68;79.20
57250;BME280;43102;52.014;-0.680;2023-04-28T03:05:00;99830;;;12.68;79.20
57250;BME280;43102;52.014;-0.680;2023-04-28T03:06:00;99830;;;12.68;79.20
57250;BME280;43102;52.014;-0.680;2023-04-28T03:07:00;99830;;;12.68;79.20
57250;BME280;43102;52.014;-0.680;2023-04-28T03:08:00;99832;;;12.71;79.15
57250;BME280;43102;52.014;-0.680;2023-04-28T03:09:00;99832;;;12.71;79.15
57250;BME280;43102;52.014;-0.680;2023-04-28T03:10:00;99832;;;12.71;79.15
57250;BME280;43102;52.014;-0.680;2023-04-28T03:11:00;99832;;;12.71;79.15
57250;BME280;43102;52.014;-0.680;2023-04-28T03:12:00;99832;;;12.71;79.15
57250;BME280;43102;52.014;-0.680;2023-04-28T03:13:00;99829;;;12.74;78.72
57250;BME280;43102;52.014;-0.680;2023-04-28T03:14:00;99829;;;12.74;78.72
57250;BME280;43102;52.014;-0.680;2023-04-28T03:15:00;99829;;;12.74;78.72
57250;BME280;43102;52.014;-0.680;2023-04-28T03:16:00;99829;;;12.74;78.72
57250;BME280;43102;52.014;-0.680;2023-04-28T03:17:00;99829;;;12.74;78.72
57250;BME280;43102;52.014;-0.680;2023-04-28T03:18:00;99829;;;12.76;79.21
57250;BME280;43102;52.014;-0.680;2023-04-28T03:19:00;99829;;;12.76;79.21
57250;BME280;43102;52.014;-0.680;2023-04-28T03:20:00;99829;;;12.76;79.21
57250;BME280;43102;52.014;-0.680;2023-04-28T03:21:00;99829;;;12.76;79.21
57250;BME280;43102;52.014;-0.680;2023-04-28T03:22:00;99829;;;12.76;79.21
57250;BME280;43102;52.014;-0.680;2023-04-28T03:23:00;99827;;;12.81;79.23
57250;BME280;43102;52.014;-0.680;2023-04-28T03:24:00;99827;;;12.81;79.23
57250;BME280;43102;52.014;-0.680;2023-04-28T03:25:00;99827;;;12.81;79.23
57250;BME280;43102;52.014;-0.680;2023-04-28T03:26:00;99827;;;12.81;79.23
57250;BME280;43102;52.014;-0.680;2023-04-28T03:27:00;99827;;;12.81;79.23
57250;BME280;43102;52.014;-0.680;2023-04-28T03:28:00;99819;;;12.84;79.25
57250;BME280;43102;52.014;-0.680;2023-04-28T03:29:00;99819;;;12.84;79.25
57250;BME280;43102;52.014;-0.680;2023-04-28T03:30:00;99819;;;12.84;79.25
57250;BME280;43102;52.014;-0.680;2023-04-28T03:31:00;99819;;;12.84;79.25
57250;BME280;43102;52.014;-0.680;2023-04-28T03:32:00;99819;;;12.84;79.25
57250;BME280;43102;52.014;-0.680;2023-04-28T03:33:00;99827;;;12.83;78.75
57250;BME280;43102;52.014;-0.680;2023-04-28T03:34:00;99827;;;12.83;78.75
57250;BME280;43102;52.014;-0.680;2023-04-28T03:35:00;99827;;;12.83;78.75
57250;BME280;43102;52.014;-0.680;2023-04-28T03:36:00;99827;;;12.83;78.75
57250;BME280;43102;52.014;-0.680;2023-04-28T03:37:00;99827;;;12.83;78.75
57250;BME280;43102;52.014;-0.680;2023-04-28T03:38:00;99825;;;12.88;78.78
57250;BME280;43102;52.014;-0.680;2023-04-28T03:39:00;99825;;;12.88;78.78
57250;BME280;43102;52.014;-0.680;2023-04-28T03:40:00;99825;;;12.88;78.78
57250;BME280;43102;52.014;-0.680;2023-04-28T03:41:00;99825;;;12.88;78.78
57250;BME280;43102;52.014;-0.680;2023-04-28T03:42:00;99825;;;12.88;78.78
57250;BME280;43102;52.014;-0.680;2023-04-28T03:43:00;99831;;;12.86;78.53
57250;BME280;43102;52.014;-0.680;2023-04-28T03:44:00;99831;;;12.86;78.53
57250;BME280;43102;52.014;-0.680;2023-04-28T03:45:00;99831;;;12.86;78.53
57250;BME280;43102;52.014;-0.680;2023-04-28T03:46:00;99831;;;12.86;78.53
57250;BME280;43102;52.014;-0.680;2023-04-28T03:47:00;99831;;;12.86;78.53
57250;BME280;43102;52.014;-0.680;2023-04-28T03:48:00;99836;;;12.90;78.81
57250;BME280;43102;52.014;-0.680;2023-04-28T03:49:00;99836;;;12.90;78.81
57250;BME280;43102;52.014;-0.680;2023-04-28T03:50:00;99836;;;12.90;78.81
57250;BME280;43102;52.014;-0.680;2023-04-28T03:51:00;99836;;;12.90;78.81
57250;BME280;43102;52.014;-0.680;2023-04-28T03:52:00;99836;;;12.90;78.81
57250;BME280;43102;52.014;-0.680;2023-04-28T03:53:00;99831;;;12.93;78.84
57250;BME280;43102;52.014;-0.680;2023-04-28T03:54:00;99831;;;12.93;78.84
57250;BME280;43102;52.014;-0.680;2023-04-28T03:55:00;99831;;;12.93;78.84
57250;BME280;43102;52.014;-0.680;2023-04-28T03:56:00;99831;;;12.93;78.84
57250;BME280;43102;52.014;-0.680;2023-04-28T03:57:00;99831;;;12.93;78.84
57250;BME280;43102;52.014;-0.680;2023-04-28T03:58:00;99837;;;12.90;79.31
57250;BME280;43102;52.014;-0.680;2023-04-28T03:59:00;99837;;;12.90;79.31
57250;BME280;43102;52.014;-0.680;2023-04-28T04:00:00;99837;;;12.90;79.31
57250;BME280;43102;52.014;-0.680;2023-04-28T04:01:00;99837;;;12.90;79.31
57250;BME280;43102;52.014;-0.680;2023-04-28T04:02:00;99837;;;12.90;79.31
57250;BME280;43102;52.014;-0.680;2023-04-28T04:03:00;99839;;;12.96;79.02
57250;BME280;43102;52.014;-0.680;2023-04-28T04:04:00;99839;;;12.96;79.02
57250;BME280;43102;52.014;-0.680;2023-04-28T04:05:00;99839;;;12.96;79.02
57250;BME280;43102;52.014;-0.680;2023-04-28T04:06:00;99839;;;12.96;79.02
57250;BME280;43102;52.014;-0.680;2023-04-28T04:07:00;99839;;;12.96;79.02
57250;BME280;43102;52.014;-0.680;2023-04-28T04:08:00;99845;;;12.99;78.90
57250;BME280;43102;52.014;-0.680;2023-04-28T04:09:00;99845;;;12.99;78.90
57250;BME280;43102;52.014;-0.680;2023-04-28T04:10:00;99845;;;12.99;78.90
57250;BME280;43102;52.014;-0.680;2023-04-28T04:11:00;99845;;;12.99;78.90
57250;BME280;43102;52.014;-0.680;2023-04-28T04:12:00;99845;;;12.99;78.90
57250;BME280;43102;52.014;-0.680;2023-04-28T04:13:00;99845;;;13.02;78.52
57250;BME280;43102;52.014;-0.680;2023-04-28T04:14:00;99845;;;13.02;78.52
57250;BME280;43102;52.014;-0.680;2023-04-28T04:15:00;99845;;;13.02;78.52
57250;BME280;43102;52.014;-0.680;2023-04-28T04:16:00;99845;;;13.02;78.52
57250;BME280;43102;52.014;-0.680;2023-04-28T04:17:00;99845;;;13.02;78.52
57250;BME280;43102;52.014;-0.680;2023-04-28T04:18:00;99849;;;13.05;78.66
57250;BME280;43102;52.014;-0.680;2023-04-28T04:19:00;99849;;;13.05;78.66
57250;BME280;43102;52.014;-0.680;2023-04-28T04:20:00;99849;;;13.05;78.66
57250;BME280;43102;52.014;-0.680;2023-04-28T04:21:00;99849;;;13.05;78.66
57250;BME280;43102;52.014;-0.680;2023-04-28T04:22:00;99849;;;13.05;78.66
57250;BME280;43102;52.014;-0.680;2023-04-28T04:23:00;99846;;;13.09;79.10
57250;BME280;43102;52.014;-0.680;2023-04-28T04:24:00;99846;;;13.09;79.10
57250;BME280;43102;52.014;-0.680;2023-04-28T04:25:00;99846;;;13.09;79.10
57250;BME280;43102;52.014;-0.680;2023-04-28T04:26:00;99846;;;13.09;79.10
57250;BME280;43102;52.014;-0.680;2023-04-28T04:27:00;99846;;;13.09;79.10
57250;BME280;43102;52.014;-0.680;2023-04-28T04:28:00;99849;;;13.12;79.40
57250;BME280;43102;52.014;-0.680;2023-04-28T04:29:00;99849;;;13.12;79.40
57250;BME280;43102;52.014;-0.680;2023-04-28T04:30:00;99849;;;13.12;79.40
57250;BME280;43102;52.014;-0.680;2023-04-28T04:31:00;99849;;;13.12;79.40
57250;BME280;43102;52.014;-0.680;2023-04-28T04:32:00;99849;;;13.12;79.40
57250;BME280;43102;52.014;-0.680;2023-04-28T04:33:00;99853;;;13.18;79.14
57250;BME280;43102;52.014;-0.680;2023-04-28T04:34:00;99853;;;13.18;79.14
57250;BME280;43102;52.014;-0.680;2023-04-28T04:35:00;99853;;;13.18;79.14
57250;BME280;43102;52.014;-0.680;2023-04-28T04:36:00;99853;;;13.18;79.14
57250;BME280;43102;52.014;-0.680;2023-04-28T04:37:00;99853;;;13.18;79.14
57250;BME280;43102;52.014;-0.680;2023-04-28T04:38:00;99864;;;13.27;78.90
57250;BME280;43102;52.014;-0.680;2023-04-28T04:39:00;99864;;;13.27;78.90
57250;BME280;43102;52.014;-0.680;2023-04-28T04:40:00;99864;;;13.27;78.90
57250;BME280;43102;52.014;-0.680;2023-04-28T04:41:00;99864;;;13.27;78.90
57250;BME280;43102;52.014;-0.680;2023-04-28T04:42:00;99864;;;13.27;78.90
57250;BME280;43102;52.014;-0.680;2023-04-28T04:43:00;99864;;;13.31;79.36
57250;BME280;43102;52.014;-0.680;2023-04-28T04:44:00;99864;;;13.31;79.36
57250;BME280;43102;52.014;-0.680;2023-04-28T04:45:00;99864;;;13.31;79.36
57250;BME280;43102;52.014;-0.680;2023-04-28T04:46:00;99864;;;13.31;79.36
57250;BME280;43102;52.014;-0.680;2023-04-28T04:47:00;99864;;;13.31;79.36
57250;BME280;43102;52.014;-0.680;2023-04-28T04:48:00;99852;;;13.40;78.60
57250;BME280;43102;52.014;-0.680;2023-04-28T04:49:00;99852;;;13.40;78.60
57250;BME280;43102;52.014;-0.680;2023-04-28T04:50:00;99852;;;13.40;78.60
57250;BME280;43102;52.014;-0.680;2023-04-28T04:51:00;99852;;;13.40;78.60
57250;BME280;43102;52.014;-0.680;2023-04-28T04:52:00;99852;;;13.40;78.60
57250;BME280;43102;52.014;-0.680;2023-04-28T04:53:00;99858;;;13.41;78.48
57250;BME280;43102;52.014;-0.680;2023-04-28T04:54:00;99858;;;13.41;78.48
57250;BME280;43102;52.014;-0.680;2023-04-28T04:55:00;99858;;;13.41;78.48
57250;BME280;43102;52.014;-0.680;2023-04-28T04:56:00;99858;;;13.41;78.48
57250;BME280;43102;52.014;-0.680;2023-04-28T04:57:00;99858;;;13.41;78.48
57250;BME280;43102;52.014;-0.680;2023-04-28T04:58:00;99857;;;13.43;79.33
57250;BME280;43102;52.014;-0.680;2023-04-28T04:59:00;99857;;;13.43;79.33
57250;BME280;43102;52.014;-0.680;2023-04-28T05:00:00;99857;;;13.43;79.33
57250;BME280;43102;52.014;-0.680;2023-04-28T05:01:00;99857;;;13.43;79.33
57250;BME280;43102;52.014;-0.680;2023-04-28T05:02:00;99857;;;13.43;79.33
57250;BME280;43102;52.014;-0.680;2023-04-28T05:03:00;99861;;;13.48;79.12
57250;BME280;43102;52.014;-0.680;2023-04-28T05:04:00;99861;;;13.48;79.12
57250;BME280;43102;52.014;-0.680;2023-04-28T05:05:00;99861;;;13.48;79.12
57250;BME280;43102;52.014;-0.680;2023-04-28T05:06:00;99861;;;13.48;79.12
57250;BME280;43102;52.014;-0.680;2023-04-28T05:07:00;99861;;;13.48;79.12
57250;BME280;43102;52.014;-0.680;2023-04-28T05:08:00;99865;;;13.51;78.69
57250;BME280;43102;52.014;-0.680;2023-04-28T05:09:00;99865;;;13.51;78.69
57250;BME280;43102;52.014;-0.680;2023-04-28T05:10:00;99865;;;13.51;78.69
57250;BME280;43102;52.014;-0.680;2023-04-28T05:11:00;99865;;;13.51;78.69
57250;BME280;43102;52.014;-0.680;2023-04-28T05:12:00;99865;;;13.51;78.69
57250;BME280;43102;52.014;-0.680;2023-04-28T05:13:00;99873;;;13.52;78.73
57250;BME280;43102;52.014;-0.680;2023-04-28T05:14:00;99873;;;13.52;78.73
57250;BME280;43102;52.014;-0.680;2023-04-28T05:15:00;99873;;;13.52;78.73
57250;BME280;43102;52.014;-0.680;2023-04-28T05:16:00;99873;;;13.52;78.73
57250;BME280;43102;52.014;-0.680;2023-04-28T05:17:00;99873;;;13.52;78.73
57250;BME280;43102;52.014;-0.680;2023-04-28T05:18:00;99879;;;13.55;78.54
57250;BME280;43102;52.014;-0.680;2023-04-28T05:19:00;99879;;;13.55;78.54
57250;BME280;43102;52.014;-0.680;2023-04-28T05:20:00;99879;;;13.55;78.54
57250;BME280;43102;52.014;-0.680;2023-04-28T05:21:00;99879;;;13.55;78.54
57250;BME280;43102;52.014;-0.680;2023-04-28T05:22:00;99879;;;13.55;78.54
57250;BME280;43102;52.014;-0.680;2023-04-28T05:23:00;99880;;;13.55;78.40
57250;BME280;43102;52.014;-0.680;2023-04-28T05:24:00;99880;;;13.55;78.40
57250;BME280;43102;52.014;-0.680;2023-04-28T05:25:00;99880;;;13.55;78.40
57250;BME280;43102;52.014;-0.680;2023-04-28T05:26:00;99880;;;13.55;78.40